createdAt,value
2023-05-05T00:00:13.038Z,479.00
2023-05-05T00:01:13.089Z,481.00
2023-05-05T00:02:13.223Z,489.00
2023-05-05T00:03:13.202Z,486.00
2023-05-05T00:04:13.205Z,485.00
2023-05-05T00:05:13.181Z,485.00
2023-05-05T00:06:13.631Z,485.00
2023-05-05T00:07:13.271Z,484.00
2023-05-05T00:08:13.358Z,486.00
2023-05-05T00:09:13.434Z,475.00
2023-05-05T00:10:13.443Z,477.00
2023-05-05T00:11:13.555Z,478.00
2023-05-05T00:12:13.517Z,482.00
2023-05-05T00:13:13.700Z,485.00
2023-05-05T00:14:13.631Z,485.00
2023-05-05T00:15:13.689Z,483.00
2023-05-05T00:16:13.747Z,487.00
2023-05-05T00:17:13.827Z,488.00
2023-05-05T00:18:13.832Z,489.00
2023-05-05T00:19:13.847Z,491.00
2023-05-05T00:20:13.895Z,490.00
2023-05-05T00:21:13.880Z,492.00
2023-05-05T00:22:13.898Z,497.00
2023-05-05T00:23:13.925Z,500.00
2023-05-05T00:24:13.990Z,503.00
2023-05-05T00:25:13.985Z,508.00
2023-05-05T00:26:14.006Z,513.00
2023-05-05T00:27:14.016Z,516.00
2023-05-05T00:28:14.050Z,519.00
2023-05-05T00:29:14.028Z,520.00
2023-05-05T00:30:14.076Z,516.00
2023-05-05T00:31:14.246Z,510.00
2023-05-05T00:32:14.147Z,509.00
2023-05-05T00:33:14.140Z,507.00
2023-05-05T00:34:14.157Z,507.00
2023-05-05T00:35:14.172Z,508.00
2023-05-05T00:36:14.213Z,508.00
2023-05-05T00:37:14.166Z,511.00
2023-05-05T00:38:14.180Z,510.00
2023-05-05T00:39:14.156Z,509.00
2023-05-05T00:40:14.188Z,502.00
2023-05-05T00:41:14.219Z,505.00
2023-05-05T00:42:14.219Z,506.00
2023-05-05T00:43:14.218Z,508.00
2023-05-05T00:44:14.350Z,507.00
2023-05-05T00:45:14.322Z,508.00
2023-05-05T00:46:14.406Z,509.00
2023-05-05T00:47:14.405Z,510.00
2023-05-05T00:48:14.473Z,514.00
2023-05-05T00:49:14.532Z,519.00
2023-05-05T00:50:14.476Z,519.00
2023-05-05T00:51:14.580Z,525.00
2023-05-05T00:52:14.593Z,519.00
2023-05-05T00:53:14.663Z,516.00
2023-05-05T00:54:14.665Z,512.00
2023-05-05T00:55:14.698Z,515.00
2023-05-05T00:56:14.711Z,515.00
2023-05-05T00:57:14.789Z,517.00
2023-05-05T00:58:14.870Z,519.00
2023-05-05T00:59:14.820Z,519.00
2023-05-05T01:00:14.880Z,517.00
2023-05-05T01:01:14.994Z,514.00
2023-05-05T01:02:15.010Z,511.00
2023-05-05T01:03:15.031Z,507.00
2023-05-05T01:04:15.030Z,506.00
2023-05-05T01:05:15.113Z,505.00
2023-05-05T01:06:15.122Z,503.00
2023-05-05T01:07:15.052Z,502.00
2023-05-05T01:08:15.118Z,503.00
2023-05-05T01:09:15.186Z,504.00
2023-05-05T01:10:20.239Z,504.00
2023-05-05T01:11:16.184Z,498.00
2023-05-05T01:12:15.625Z,503.00
2023-05-05T01:13:15.236Z,510.00
2023-05-05T01:14:15.147Z,507.00
2023-05-05T01:15:15.192Z,509.00
2023-05-05T01:16:15.182Z,507.00
2023-05-05T01:17:15.161Z,505.00
2023-05-05T01:18:15.121Z,498.00
2023-05-05T01:19:15.150Z,496.00
2023-05-05T01:20:15.160Z,491.00
2023-05-05T01:21:15.131Z,494.00
2023-05-05T01:22:15.163Z,487.00
2023-05-05T01:23:15.268Z,477.00
2023-05-05T01:24:15.135Z,502.00
2023-05-05T01:25:15.102Z,483.00
2023-05-05T01:26:15.127Z,483.00
2023-05-05T01:27:15.644Z,488.00
2023-05-05T01:28:15.212Z,500.00
2023-05-05T01:29:15.243Z,480.00
2023-05-05T01:30:15.240Z,501.00
2023-05-05T01:31:15.358Z,495.00
2023-05-05T01:32:15.337Z,497.00
2023-05-05T01:33:15.337Z,476.00
2023-05-05T01:34:15.379Z,477.00
2023-05-05T01:35:15.395Z,480.00
2023-05-05T01:36:15.396Z,528.00
2023-05-05T01:37:15.475Z,482.00
2023-05-05T01:38:15.498Z,477.00
2023-05-05T01:39:15.552Z,501.00
2023-05-05T01:40:15.565Z,492.00
2023-05-05T01:41:15.559Z,499.00
2023-05-05T01:42:15.603Z,493.00
2023-05-05T01:43:15.592Z,495.00
2023-05-05T01:44:15.577Z,497.00
2023-05-05T01:45:15.646Z,501.00
2023-05-05T01:46:15.762Z,503.00
2023-05-05T01:47:16.113Z,500.00
2023-05-05T01:48:15.840Z,499.00
2023-05-05T01:49:15.910Z,503.00
2023-05-05T01:50:15.932Z,505.00
2023-05-05T01:51:15.953Z,514.00
2023-05-05T01:52:16.008Z,495.00
2023-05-05T01:53:16.021Z,498.00
2023-05-05T01:54:16.070Z,498.00
2023-05-05T01:55:16.100Z,498.00
2023-05-05T01:56:16.132Z,493.00
2023-05-05T01:57:16.146Z,502.00
2023-05-05T01:58:16.186Z,490.00
2023-05-05T01:59:16.215Z,479.00
2023-05-05T02:00:17.153Z,480.00
2023-05-05T02:01:16.309Z,487.00
2023-05-05T02:02:16.345Z,487.00
2023-05-05T02:03:16.401Z,464.00
2023-05-05T02:04:16.346Z,496.00
2023-05-05T02:05:16.417Z,494.00
2023-05-05T02:06:16.469Z,491.00
2023-05-05T02:07:16.449Z,493.00
2023-05-05T02:08:16.628Z,495.00
2023-05-05T02:09:16.576Z,474.00
2023-05-05T02:10:16.599Z,484.00
2023-05-05T02:11:16.681Z,488.00
2023-05-05T02:12:16.711Z,487.00
2023-05-05T02:13:16.862Z,491.00
2023-05-05T02:14:16.717Z,504.00
2023-05-05T02:15:16.742Z,483.00
2023-05-05T02:16:16.974Z,479.00
2023-05-05T02:17:16.842Z,486.00
2023-05-05T02:18:16.848Z,492.00
2023-05-05T02:19:16.930Z,500.00
2023-05-05T02:20:16.961Z,492.00
2023-05-05T02:21:16.964Z,491.00
2023-05-05T02:22:17.010Z,497.00
2023-05-05T02:23:16.980Z,490.00
2023-05-05T02:24:17.008Z,494.00
2023-05-05T02:25:17.103Z,498.00
2023-05-05T02:26:17.152Z,503.00
2023-05-05T02:27:17.182Z,508.00
2023-05-05T02:28:17.206Z,512.00
2023-05-05T02:29:17.307Z,515.00
2023-05-05T02:30:17.283Z,518.00
2023-05-05T02:31:17.422Z,514.00
2023-05-05T02:32:17.365Z,511.00
2023-05-05T02:33:17.436Z,510.00
2023-05-05T02:34:17.455Z,510.00
2023-05-05T02:35:17.491Z,509.00
2023-05-05T02:36:17.477Z,510.00
2023-05-05T02:37:17.511Z,510.00
2023-05-05T02:38:17.596Z,517.00
2023-05-05T02:39:17.546Z,511.00
2023-05-05T02:40:17.512Z,513.00
2023-05-05T02:41:17.545Z,513.00
2023-05-05T02:42:17.554Z,511.00
2023-05-05T02:43:17.666Z,510.00
2023-05-05T02:44:17.572Z,511.00
2023-05-05T02:45:17.628Z,511.00
2023-05-05T02:46:17.787Z,514.00
2023-05-05T02:47:17.697Z,515.00
2023-05-05T02:48:17.706Z,514.00
2023-05-05T02:49:17.715Z,518.00
2023-05-05T02:50:17.732Z,517.00
2023-05-05T02:51:18.123Z,514.00
2023-05-05T02:52:17.778Z,515.00
2023-05-05T02:53:17.813Z,513.00
2023-05-05T02:54:17.788Z,516.00
2023-05-05T02:55:17.845Z,497.00
2023-05-05T02:56:17.859Z,499.00
2023-05-05T02:57:17.924Z,495.00
2023-05-05T02:58:17.949Z,494.00
2023-05-05T02:59:17.959Z,498.00
2023-05-05T03:00:17.990Z,501.00
2023-05-05T03:01:18.073Z,506.00
2023-05-05T03:02:18.068Z,513.00
2023-05-05T03:03:18.221Z,511.00
2023-05-05T03:04:18.167Z,504.00
2023-05-05T03:05:18.177Z,512.00
2023-05-05T03:06:18.202Z,510.00
2023-05-05T03:07:18.214Z,506.00
2023-05-05T03:08:18.229Z,508.00
2023-05-05T03:09:18.295Z,507.00
2023-05-05T03:10:18.309Z,509.00
2023-05-05T03:11:18.289Z,484.00
2023-05-05T03:12:18.360Z,494.00
2023-05-05T03:13:18.421Z,500.00
2023-05-05T03:14:18.500Z,500.00
2023-05-05T03:15:18.512Z,502.00
2023-05-05T03:16:18.594Z,502.00
2023-05-05T03:17:18.545Z,500.00
2023-05-05T03:18:18.576Z,498.00
2023-05-05T03:19:18.597Z,500.00
2023-05-05T03:20:18.675Z,500.00
2023-05-05T03:21:18.673Z,499.00
2023-05-05T03:22:18.742Z,500.00
2023-05-05T03:23:18.756Z,504.00
2023-05-05T03:24:18.783Z,506.00
2023-05-05T03:25:18.812Z,506.00
2023-05-05T03:26:18.882Z,507.00
2023-05-05T03:27:18.883Z,503.00
2023-05-05T03:28:18.921Z,506.00
2023-05-05T03:29:18.936Z,510.00
2023-05-05T03:30:18.991Z,513.00
2023-05-05T03:31:19.070Z,521.00
2023-05-05T03:32:19.035Z,510.00
2023-05-05T03:33:19.046Z,518.00
2023-05-05T03:34:19.073Z,515.00
2023-05-05T03:35:19.109Z,516.00
2023-05-05T03:36:19.179Z,510.00
2023-05-05T03:37:19.172Z,510.00
2023-05-05T03:38:19.244Z,496.00
2023-05-05T03:39:19.339Z,469.00
2023-05-05T03:40:19.441Z,487.00
2023-05-05T03:41:19.454Z,490.00
2023-05-05T03:42:19.386Z,492.00
2023-05-05T03:43:19.383Z,493.00
2023-05-05T03:44:19.401Z,493.00
2023-05-05T03:45:19.417Z,491.00
2023-05-05T03:46:19.484Z,490.00
2023-05-05T03:47:19.504Z,490.00
2023-05-05T03:48:19.478Z,495.00
2023-05-05T03:49:19.685Z,499.00
2023-05-05T03:50:19.572Z,499.00
2023-05-05T03:51:20.156Z,502.00
2023-05-05T03:52:19.658Z,502.00
2023-05-05T03:53:19.702Z,499.00
2023-05-05T03:54:19.759Z,497.00
2023-05-05T03:55:19.757Z,500.00
2023-05-05T03:56:19.794Z,502.00
2023-05-05T03:57:19.850Z,506.00
2023-05-05T03:58:19.895Z,503.00
2023-05-05T03:59:19.910Z,502.00
2023-05-05T04:00:19.909Z,500.00
2023-05-05T04:01:19.974Z,501.00
2023-05-05T04:02:20.077Z,505.00
2023-05-05T04:03:20.147Z,545.00
2023-05-05T04:04:20.119Z,507.00
2023-05-05T04:05:20.154Z,502.00
2023-05-05T04:06:20.183Z,508.00
2023-05-05T04:07:20.192Z,514.00
2023-05-05T04:08:20.269Z,515.00
2023-05-05T04:09:20.295Z,513.00
2023-05-05T04:10:20.371Z,519.00
2023-05-05T04:11:20.396Z,494.00
2023-05-05T04:12:20.402Z,513.00
2023-05-05T04:13:20.392Z,488.00
2023-05-05T04:14:20.406Z,507.00
2023-05-05T04:15:20.413Z,515.00
2023-05-05T04:16:20.492Z,517.00
2023-05-05T04:17:20.498Z,528.00
2023-05-05T04:18:20.540Z,526.00
2023-05-05T04:19:20.544Z,525.00
2023-05-05T04:20:20.604Z,524.00
2023-05-05T04:21:20.673Z,522.00
2023-05-05T04:22:20.668Z,524.00
2023-05-05T04:23:20.705Z,525.00
2023-05-05T04:24:20.718Z,526.00
2023-05-05T04:25:20.730Z,527.00
2023-05-05T04:26:20.760Z,530.00
2023-05-05T04:27:20.786Z,531.00
2023-05-05T04:28:21.749Z,529.00
2023-05-05T04:29:20.823Z,528.00
2023-05-05T04:30:20.889Z,533.00
2023-05-05T04:31:21.015Z,530.00
2023-05-05T04:32:21.002Z,533.00
2023-05-05T04:33:21.048Z,536.00
2023-05-05T04:34:21.066Z,538.00
2023-05-05T04:35:21.078Z,538.00
2023-05-05T04:36:21.127Z,539.00
2023-05-05T04:37:21.172Z,538.00
2023-05-05T04:38:21.286Z,538.00
2023-05-05T04:39:21.256Z,538.00
2023-05-05T04:40:21.252Z,537.00
2023-05-05T04:41:21.293Z,536.00
2023-05-05T04:42:21.366Z,533.00
2023-05-05T04:43:21.362Z,533.00
2023-05-05T04:44:21.398Z,530.00
2023-05-05T04:45:21.426Z,530.00
2023-05-05T04:46:21.744Z,531.00
2023-05-05T04:47:21.509Z,532.00
2023-05-05T04:48:21.529Z,534.00
2023-05-05T04:49:22.173Z,536.00
2023-05-05T04:50:21.619Z,530.00
2023-05-05T04:51:21.643Z,517.00
2023-05-05T04:52:21.663Z,521.00
2023-05-05T04:53:21.687Z,526.00
2023-05-05T04:54:21.700Z,530.00
2023-05-05T04:55:21.714Z,532.00
2023-05-05T04:56:21.820Z,535.00
2023-05-05T04:57:21.827Z,539.00
2023-05-05T04:58:21.797Z,539.00
2023-05-05T04:59:21.833Z,544.00
2023-05-05T05:00:21.932Z,544.00
2023-05-05T05:01:22.060Z,540.00
2023-05-05T05:02:22.107Z,545.00
2023-05-05T05:03:22.140Z,550.00
2023-05-05T05:04:22.080Z,548.00
2023-05-05T05:05:22.108Z,547.00
2023-05-05T05:06:22.154Z,545.00
2023-05-05T05:07:22.187Z,548.00
2023-05-05T05:08:22.716Z,544.00
2023-05-05T05:09:23.217Z,542.00
2023-05-05T05:10:22.292Z,539.00
2023-05-05T05:11:22.338Z,535.00
2023-05-05T05:12:22.338Z,521.00
2023-05-05T05:13:22.812Z,535.00
2023-05-05T05:14:22.428Z,532.00
2023-05-05T05:15:22.438Z,535.00
2023-05-05T05:16:23.248Z,532.00
2023-05-05T05:17:22.582Z,514.00
2023-05-05T05:18:22.560Z,487.00
2023-05-05T05:19:22.569Z,498.00
2023-05-05T05:20:22.634Z,496.00
2023-05-05T05:21:22.694Z,518.00
2023-05-05T05:22:22.772Z,520.00
2023-05-05T05:23:22.707Z,525.00
2023-05-05T05:24:22.761Z,529.00
2023-05-05T05:25:22.800Z,530.00
2023-05-05T05:26:22.803Z,530.00
2023-05-05T05:27:22.875Z,533.00
2023-05-05T05:28:22.891Z,535.00
2023-05-05T05:29:22.910Z,539.00
2023-05-05T05:30:22.934Z,531.00
2023-05-05T05:31:23.033Z,534.00
2023-05-05T05:32:22.987Z,545.00
2023-05-05T05:33:23.137Z,542.00
2023-05-05T05:34:23.090Z,531.00
2023-05-05T05:35:23.030Z,541.00
2023-05-05T05:36:23.216Z,529.00
2023-05-05T05:37:23.071Z,542.00
2023-05-05T05:38:23.091Z,534.00
2023-05-05T05:39:23.112Z,534.00
2023-05-05T05:40:23.731Z,526.00
2023-05-05T05:41:23.204Z,454.00
2023-05-05T05:42:23.212Z,502.00
2023-05-05T05:43:23.275Z,504.00
2023-05-05T05:44:23.395Z,497.00
2023-05-05T05:45:23.370Z,526.00
2023-05-05T05:46:23.347Z,505.00
2023-05-05T05:47:23.382Z,505.00
2023-05-05T05:48:23.317Z,506.00
2023-05-05T05:49:23.389Z,464.00
2023-05-05T05:50:23.381Z,506.00
2023-05-05T05:51:23.462Z,496.00
2023-05-05T05:52:23.447Z,504.00
2023-05-05T05:53:23.492Z,533.00
2023-05-05T05:54:23.545Z,497.00
2023-05-05T05:55:23.543Z,507.00
2023-05-05T05:56:23.612Z,487.00
2023-05-05T05:57:23.589Z,532.00
2023-05-05T05:58:23.604Z,515.00
2023-05-05T05:59:23.648Z,515.00
2023-05-05T06:00:23.692Z,518.00
2023-05-05T06:01:23.713Z,531.00
2023-05-05T06:02:23.719Z,506.00
2023-05-05T06:03:23.893Z,506.00
2023-05-05T06:04:23.848Z,497.00
2023-05-05T06:05:23.839Z,510.00
2023-05-05T06:06:24.218Z,504.00
2023-05-05T06:07:23.970Z,506.00
2023-05-05T06:08:25.686Z,518.00
2023-05-05T06:09:24.017Z,477.00
2023-05-05T06:10:27.770Z,494.00
2023-05-05T06:11:24.128Z,497.00
2023-05-05T06:12:24.033Z,492.00
2023-05-05T06:13:23.994Z,482.00
2023-05-05T06:14:24.020Z,465.00
2023-05-05T06:15:24.020Z,498.00
2023-05-05T06:16:24.104Z,508.00
2023-05-05T06:17:23.972Z,487.00
2023-05-05T06:18:24.288Z,491.00
2023-05-05T06:19:24.368Z,474.00
2023-05-05T06:20:23.970Z,485.00
2023-05-05T06:21:24.817Z,501.00
2023-05-05T06:22:24.046Z,493.00
2023-05-05T06:23:23.942Z,473.00
2023-05-05T06:24:23.946Z,398.00
2023-05-05T06:25:23.966Z,515.00
2023-05-05T06:26:23.939Z,467.00
2023-05-05T06:27:23.933Z,494.00
2023-05-05T06:28:24.388Z,472.00
2023-05-05T06:29:23.922Z,523.00
2023-05-05T06:30:23.893Z,485.00
2023-05-05T06:31:23.925Z,503.00
2023-05-05T06:32:24.014Z,452.00
2023-05-05T06:33:23.869Z,468.00
2023-05-05T06:34:23.879Z,426.00
2023-05-05T06:35:23.852Z,502.00
2023-05-05T06:36:24.050Z,452.00
2023-05-05T06:37:24.799Z,483.00
2023-05-05T06:38:24.711Z,492.00
2023-05-05T06:39:23.866Z,479.00
2023-05-05T06:40:23.921Z,476.00
2023-05-05T06:41:23.805Z,480.00
2023-05-05T06:42:23.831Z,482.00
2023-05-05T06:43:24.750Z,518.00
2023-05-05T06:44:23.798Z,465.00
2023-05-05T06:45:23.780Z,473.00
2023-05-05T06:46:23.826Z,478.00
2023-05-05T06:47:24.247Z,475.00
2023-05-05T06:48:23.776Z,459.00
2023-05-05T06:49:23.868Z,467.00
2023-05-05T06:50:23.972Z,478.00
2023-05-05T06:51:23.937Z,483.00
2023-05-05T06:52:24.064Z,477.00
2023-05-05T06:53:24.095Z,477.00
2023-05-05T06:54:24.091Z,464.00
2023-05-05T06:55:24.167Z,476.00
2023-05-05T06:56:24.192Z,469.00
2023-05-05T06:57:24.263Z,467.00
2023-05-05T06:58:24.272Z,420.00
2023-05-05T06:59:24.300Z,470.00
2023-05-05T07:00:24.408Z,456.00
2023-05-05T07:01:24.638Z,470.00
2023-05-05T07:02:26.662Z,480.00
2023-05-05T07:03:24.601Z,468.00
2023-05-05T07:04:24.657Z,490.00
2023-05-05T07:05:24.675Z,463.00
2023-05-05T07:06:25.245Z,467.00
2023-05-05T07:07:24.861Z,471.00
2023-05-05T07:08:25.133Z,497.00
2023-05-05T07:09:24.904Z,471.00
2023-05-05T07:10:24.907Z,479.00
2023-05-05T07:11:24.978Z,458.00
2023-05-05T07:12:25.044Z,466.00
2023-05-05T07:13:25.069Z,464.00
2023-05-05T07:14:25.087Z,479.00
2023-05-05T07:15:29.112Z,485.00
2023-05-05T07:16:25.229Z,471.00
2023-05-05T07:17:25.273Z,470.00
2023-05-05T07:18:25.120Z,470.00
2023-05-05T07:19:25.231Z,471.00
2023-05-05T07:20:25.211Z,474.00
2023-05-05T07:21:25.114Z,484.00
2023-05-05T07:22:25.133Z,482.00
2023-05-05T07:23:25.103Z,458.00
2023-05-05T07:24:25.068Z,479.00
2023-05-05T07:25:25.065Z,470.00
2023-05-05T07:26:25.109Z,467.00
2023-05-05T07:27:25.080Z,467.00
2023-05-05T07:28:25.094Z,459.00
2023-05-05T07:29:25.208Z,473.00
2023-05-05T07:30:25.530Z,462.00
2023-05-05T07:31:25.158Z,462.00
2023-05-05T07:32:25.118Z,469.00
2023-05-05T07:33:25.036Z,495.00
2023-05-05T07:34:25.255Z,501.00
2023-05-05T07:35:25.793Z,441.00
2023-05-05T07:36:25.089Z,461.00
2023-05-05T07:37:25.018Z,479.00
2023-05-05T07:38:25.087Z,437.00
2023-05-05T07:39:25.038Z,476.00
2023-05-05T07:40:25.043Z,484.00
2023-05-05T07:41:25.099Z,483.00
2023-05-05T07:42:25.149Z,479.00
2023-05-05T07:43:25.216Z,479.00
2023-05-05T07:44:25.225Z,485.00
2023-05-05T07:45:25.362Z,440.00
2023-05-05T07:46:25.413Z,458.00
2023-05-05T07:47:25.335Z,451.00
2023-05-05T07:48:25.483Z,468.00
2023-05-05T07:49:25.374Z,476.00
2023-05-05T07:50:26.246Z,424.00
2023-05-05T07:51:25.402Z,465.00
2023-05-05T07:52:43.708Z,476.00
2023-05-05T07:53:27.395Z,466.00
2023-05-05T07:54:25.417Z,506.00
2023-05-05T07:55:25.388Z,478.00
2023-05-05T07:56:25.407Z,459.00
2023-05-05T07:57:25.735Z,463.00
2023-05-05T07:58:25.397Z,445.00
2023-05-05T07:59:25.462Z,467.00
2023-05-05T08:00:25.447Z,614.00
2023-05-05T08:01:25.407Z,440.00
2023-05-05T08:02:25.499Z,497.00
2023-05-05T08:03:25.663Z,461.00
2023-05-05T08:04:25.537Z,480.00
2023-05-05T08:05:25.588Z,452.00
2023-05-05T08:06:25.506Z,460.00
2023-05-05T08:07:25.518Z,456.00
2023-05-05T08:08:25.532Z,462.00
2023-05-05T08:09:25.603Z,459.00
2023-05-05T08:10:25.628Z,468.00
2023-05-05T08:11:26.800Z,465.00
2023-05-05T08:12:25.810Z,488.00
2023-05-05T08:13:25.924Z,455.00
2023-05-05T08:14:25.796Z,457.00
2023-05-05T08:15:26.031Z,433.00
2023-05-05T08:16:26.000Z,454.00
2023-05-05T08:17:25.972Z,458.00
2023-05-05T08:18:26.130Z,468.00
2023-05-05T08:19:29.292Z,464.00
2023-05-05T08:20:26.794Z,444.00
2023-05-05T08:21:26.789Z,455.00
2023-05-05T08:22:26.066Z,433.00
2023-05-05T08:23:26.037Z,466.00
2023-05-05T08:24:25.972Z,456.00
2023-05-05T08:25:26.033Z,469.00
2023-05-05T08:26:26.633Z,467.00
2023-05-05T08:27:26.249Z,463.00
2023-05-05T08:28:25.961Z,468.00
2023-05-05T08:29:26.929Z,468.00
2023-05-05T08:30:25.959Z,465.00
2023-05-05T08:31:26.021Z,450.00
2023-05-05T08:32:27.253Z,469.00
2023-05-05T08:33:25.992Z,455.00
2023-05-05T08:34:26.139Z,431.00
2023-05-05T08:35:26.119Z,448.00
2023-05-05T08:36:26.157Z,474.00
2023-05-05T08:37:26.282Z,482.00
2023-05-05T08:38:26.204Z,446.00
2023-05-05T08:39:26.272Z,448.00
2023-05-05T08:40:26.337Z,443.00
2023-05-05T08:41:26.371Z,449.00
2023-05-05T08:42:37.066Z,456.00
2023-05-05T08:43:27.395Z,454.00
2023-05-05T08:44:27.441Z,455.00
2023-05-05T08:45:26.384Z,460.00
2023-05-05T08:46:26.366Z,459.00
2023-05-05T08:47:26.383Z,460.00
2023-05-05T08:48:26.382Z,456.00
2023-05-05T08:49:26.348Z,459.00
2023-05-05T08:50:26.366Z,458.00
2023-05-05T08:51:26.404Z,457.00
2023-05-05T08:52:26.468Z,457.00
2023-05-05T08:53:26.368Z,460.00
2023-05-05T08:54:26.364Z,463.00
2023-05-05T08:55:26.464Z,464.00
2023-05-05T08:56:26.372Z,467.00
2023-05-05T08:57:26.404Z,463.00
2023-05-05T08:58:28.786Z,464.00
2023-05-05T08:59:26.643Z,461.00
2023-05-05T09:00:26.714Z,465.00
2023-05-05T09:01:26.732Z,473.00
2023-05-05T09:02:26.892Z,474.00
2023-05-05T09:03:26.831Z,459.00
2023-05-05T09:04:26.892Z,460.00
2023-05-05T09:05:26.887Z,458.00
2023-05-05T09:06:26.894Z,453.00
2023-05-05T09:07:26.913Z,374.00
2023-05-05T09:08:26.962Z,521.00
2023-05-05T09:09:26.938Z,432.00
2023-05-05T09:10:27.923Z,443.00
2023-05-05T09:11:27.061Z,449.00
2023-05-05T09:12:27.301Z,453.00
2023-05-05T09:13:27.216Z,458.00
2023-05-05T09:14:27.285Z,435.00
2023-05-05T09:15:27.230Z,424.00
2023-05-05T09:16:27.277Z,443.00
2023-05-05T09:17:27.475Z,445.00
2023-05-05T09:18:27.359Z,458.00
2023-05-05T09:19:27.759Z,462.00
2023-05-05T09:20:27.376Z,461.00
2023-05-05T09:21:27.487Z,460.00
2023-05-05T09:22:27.430Z,465.00
2023-05-05T09:23:27.408Z,465.00
2023-05-05T09:24:27.487Z,465.00
2023-05-05T09:25:27.503Z,464.00
2023-05-05T09:26:27.519Z,470.00
2023-05-05T09:27:27.580Z,446.00
2023-05-05T09:28:27.532Z,459.00
2023-05-05T09:29:27.570Z,446.00
2023-05-05T09:30:27.586Z,451.00
2023-05-05T09:31:27.715Z,457.00
2023-05-05T09:32:29.202Z,455.00
2023-05-05T09:33:27.746Z,454.00
2023-05-05T09:34:27.759Z,454.00
2023-05-05T09:35:27.701Z,459.00
2023-05-05T09:36:27.631Z,463.00
2023-05-05T09:37:27.643Z,475.00
2023-05-05T09:38:32.295Z,484.00
2023-05-05T09:39:27.631Z,488.00
2023-05-05T09:40:27.794Z,486.00
2023-05-05T09:41:27.664Z,426.00
2023-05-05T09:42:27.604Z,464.00
2023-05-05T09:43:27.624Z,477.00
2023-05-05T09:44:27.793Z,496.00
2023-05-05T09:45:27.856Z,504.00
2023-05-05T09:46:28.347Z,473.00
2023-05-05T09:47:29.843Z,472.00
2023-05-05T09:48:30.051Z,471.00
2023-05-05T09:49:27.844Z,480.00
2023-05-05T09:50:27.873Z,502.00
2023-05-05T09:51:27.907Z,467.00
2023-05-05T09:52:27.975Z,476.00
2023-05-05T09:53:28.301Z,508.00
2023-05-05T09:54:28.134Z,588.00
2023-05-05T09:55:28.120Z,441.00
2023-05-05T09:56:28.124Z,394.00
2023-05-05T09:57:28.303Z,448.00
2023-05-05T09:58:28.281Z,456.00
2023-05-05T09:59:28.173Z,461.00
2023-05-05T10:00:28.201Z,414.00
2023-05-05T10:01:28.304Z,442.00
2023-05-05T10:02:28.325Z,459.00
2023-05-05T10:03:28.362Z,474.00
2023-05-05T10:04:29.544Z,484.00
2023-05-05T10:05:28.567Z,486.00
2023-05-05T10:06:28.442Z,474.00
2023-05-05T10:07:28.423Z,447.00
2023-05-05T10:08:28.449Z,446.00
2023-05-05T10:09:28.492Z,456.00
2023-05-05T10:10:29.079Z,466.00
2023-05-05T10:11:28.500Z,461.00
2023-05-05T10:12:28.849Z,462.00
2023-05-05T10:13:28.746Z,467.00
2023-05-05T10:14:28.582Z,463.00
2023-05-05T10:15:28.606Z,469.00
2023-05-05T10:16:29.152Z,471.00
2023-05-05T10:17:28.635Z,468.00
2023-05-05T10:18:28.740Z,469.00
2023-05-05T10:19:28.786Z,468.00
2023-05-05T10:20:28.767Z,462.00
2023-05-05T10:21:28.905Z,460.00
2023-05-05T10:22:28.859Z,459.00
2023-05-05T10:23:29.802Z,457.00
2023-05-05T10:24:29.820Z,457.00
2023-05-05T10:25:28.986Z,458.00
2023-05-05T10:26:28.961Z,455.00
2023-05-05T10:27:29.208Z,458.00
2023-05-05T10:28:29.813Z,459.00
2023-05-05T10:29:29.042Z,467.00
2023-05-05T10:30:29.252Z,447.00
2023-05-05T10:31:29.174Z,454.00
2023-05-05T10:32:53.504Z,456.00
2023-05-05T10:33:32.256Z,460.00
2023-05-05T10:34:29.570Z,453.00
2023-05-05T10:35:29.137Z,452.00
2023-05-05T10:36:29.194Z,449.00
2023-05-05T10:37:29.142Z,458.00
2023-05-05T10:38:29.134Z,462.00
2023-05-05T10:39:29.126Z,465.00
2023-05-05T10:40:29.106Z,465.00
2023-05-05T10:41:29.078Z,470.00
2023-05-05T10:42:29.080Z,457.00
2023-05-05T10:43:29.314Z,452.00
2023-05-05T10:44:29.351Z,452.00
2023-05-05T10:45:29.178Z,452.00
2023-05-05T10:46:29.097Z,459.00
2023-05-05T10:47:29.854Z,455.00
2023-05-05T10:48:29.856Z,461.00
2023-05-05T10:49:29.320Z,464.00
2023-05-05T10:50:29.186Z,479.00
2023-05-05T10:51:39.209Z,487.00
2023-05-05T10:52:30.015Z,543.00
2023-05-05T10:53:29.029Z,538.00
2023-05-05T10:54:29.032Z,491.00
2023-05-05T10:55:29.019Z,485.00
2023-05-05T10:56:29.004Z,483.00
2023-05-05T10:57:29.013Z,485.00
2023-05-05T10:58:28.996Z,443.00
2023-05-05T10:59:29.003Z,409.00
2023-05-05T11:00:29.147Z,440.00
2023-05-05T11:01:29.112Z,450.00
2023-05-05T11:02:29.003Z,453.00
2023-05-05T11:03:29.025Z,452.00
2023-05-05T11:04:29.007Z,449.00
2023-05-05T11:05:28.974Z,460.00
2023-05-05T11:06:29.024Z,475.00
2023-05-05T11:07:29.055Z,503.00
2023-05-05T11:08:29.084Z,485.00
2023-05-05T11:09:29.154Z,472.00
2023-05-05T11:10:29.265Z,460.00
2023-05-05T11:11:29.231Z,436.00
2023-05-05T11:12:29.324Z,460.00
2023-05-05T11:13:29.573Z,467.00
2023-05-05T11:14:29.804Z,475.00
2023-05-05T11:15:29.315Z,486.00
2023-05-05T11:16:29.533Z,524.00
2023-05-05T11:17:29.570Z,534.00
2023-05-05T11:18:29.352Z,506.00
2023-05-05T11:19:29.438Z,496.00
2023-05-05T11:20:29.476Z,513.00
2023-05-05T11:21:29.584Z,529.00
2023-05-05T11:22:29.616Z,466.00
2023-05-05T11:23:29.822Z,477.00
2023-05-05T11:24:29.728Z,493.00
2023-05-05T11:25:29.712Z,478.00
2023-05-05T11:26:29.766Z,469.00
2023-05-05T11:27:29.835Z,464.00
2023-05-05T11:28:29.946Z,475.00
2023-05-05T11:29:29.897Z,472.00
2023-05-05T11:30:29.958Z,474.00
2023-05-05T11:31:30.039Z,466.00
2023-05-05T11:32:30.142Z,472.00
2023-05-05T11:33:30.088Z,465.00
2023-05-05T11:34:30.242Z,493.00
2023-05-05T11:35:30.147Z,448.00
2023-05-05T11:36:30.159Z,469.00
2023-05-05T11:37:30.242Z,467.00
2023-05-05T11:38:30.267Z,464.00
2023-05-05T11:39:30.321Z,466.00
2023-05-05T11:40:30.446Z,462.00
2023-05-05T11:41:30.388Z,457.00
2023-05-05T11:42:30.502Z,456.00
2023-05-05T11:43:30.501Z,458.00
2023-05-05T11:44:30.489Z,458.00
2023-05-05T11:45:30.496Z,460.00
2023-05-05T11:46:30.553Z,461.00
2023-05-05T11:47:30.575Z,459.00
2023-05-05T11:48:30.542Z,462.00
2023-05-05T11:49:30.550Z,462.00
2023-05-05T11:50:30.534Z,463.00
2023-05-05T11:51:30.544Z,464.00
2023-05-05T11:52:30.574Z,465.00
2023-05-05T11:53:30.631Z,464.00
2023-05-05T11:54:30.619Z,460.00
2023-05-05T11:55:30.628Z,464.00
2023-05-05T11:56:30.645Z,462.00
2023-05-05T11:57:30.681Z,466.00
2023-05-05T11:58:30.695Z,469.00
2023-05-05T11:59:30.761Z,472.00
2023-05-05T12:00:30.810Z,469.00
2023-05-05T12:01:30.835Z,468.00
2023-05-05T12:02:30.953Z,464.00
2023-05-05T12:03:31.118Z,460.00
2023-05-05T12:04:31.064Z,457.00
2023-05-05T12:05:30.951Z,458.00
2023-05-05T12:06:31.077Z,458.00
2023-05-05T12:07:31.059Z,459.00
2023-05-05T12:08:31.072Z,460.00
2023-05-05T12:09:31.080Z,447.00
2023-05-05T12:10:31.116Z,447.00
2023-05-05T12:11:31.165Z,445.00
2023-05-05T12:12:31.173Z,447.00
2023-05-05T12:13:31.249Z,448.00
2023-05-05T12:14:31.229Z,444.00
2023-05-05T12:15:31.440Z,441.00
2023-05-05T12:16:31.357Z,439.00
2023-05-05T12:17:31.307Z,439.00
2023-05-05T12:18:31.360Z,461.00
2023-05-05T12:19:31.367Z,436.00
2023-05-05T12:20:31.512Z,435.00
2023-05-05T12:21:31.467Z,455.00
2023-05-05T12:22:31.540Z,456.00
2023-05-05T12:23:31.559Z,457.00
2023-05-05T12:24:31.722Z,455.00
2023-05-05T12:25:31.643Z,438.00
2023-05-05T12:26:31.697Z,446.00
2023-05-05T12:27:31.712Z,446.00
2023-05-05T12:28:31.754Z,448.00